Parkdale, Oregon
Current Conditions -  °F | °C
As of 7:59 AM on Friday 31 Oct 2014 (Local Time) from K4S2 Reporting Station
Haze Haze  
Wind Chill: 52°   Ceiling: 6500
Heat Index: 52°   Visibility: 3mi
Dew Point: 52°   Wind: 0mph
Humidity: 100%   Direction: NA
Pressure: 29.7"   Gusts: NA
Location:  45.3977°N, 121.59°W
Report Text: K4S2 311459Z AUTO 00000KT 3SM BR SCT015 OVC065 11/11 A2970 RMK AO2 P0001 SLP074 T01100110
Loading
Personal Weather Stations






























Interactive Weather Map
Tropical Storm Tracking
New forecast layout! Learn more

10-Day Weather Forecast

Advertisements
Track Severe Weather on mobile